Time;durP1;ratioP1;P1;durP2;ratioP2;P2;SDS_P1;SDS_P2;PMS_P1;PMS_P2;Temp;Humidity;BMP_temperature;BMP_pressure;BME280_temperature;BME280_humidity;BME280_pressure;Samples;Min_cycle;Max_cycle;Signal;HPM_P1;HPM_P2
2021/04/18 00:00:44;;;;;;;13.52;9.60;;;153.60;2252.80;;;;;;5078434;28;20036;-66
2021/04/18 00:03:10;;;;;;;14.90;10.25;;;153.60;2252.80;;;;;;5077509;28;20046;-66
2021/04/18 00:05:36;;;;;;;16.85;11.35;;;153.60;2252.80;;;;;;5077153;28;20385;-65
2021/04/18 00:08:02;;;;;;;24.80;14.40;;;128.90;2252.80;;;;;;5079620;28;20384;-65
2021/04/18 00:10:33;;;;;;;64.10;28.30;;;128.90;2252.80;;;;;;5075562;28;20025;-66
2021/04/18 00:13:00;;;;;;;30.50;16.95;;;128.90;2252.80;;;;;;5080372;28;20074;-69
2021/04/18 00:15:26;;;;;;;31.08;17.25;;;128.80;2252.80;;;;;;5075926;28;20028;-66
2021/04/18 00:17:53;;;;;;;23.33;14.77;;;128.90;2252.80;;;;;;5079413;28;20024;-65
2021/04/18 00:20:19;;;;;;;22.88;14.43;;;128.80;2252.80;;;;;;5074676;28;20397;-65
2021/04/18 00:22:46;;;;;;;25.98;16.60;;;128.80;2252.80;;;;;;5082049;28;20032;-66
2021/04/18 00:25:14;;;;;;;27.33;18.42;;;128.80;2252.80;;;;;;5077767;28;20028;-66
2021/04/18 00:27:41;;;;;;;23.80;15.50;;;128.90;2252.80;;;;;;5076065;28;20032;-67
2021/04/18 00:30:19;;;;;;;20.63;13.45;;;128.90;2252.80;;;;;;5078285;28;20483;-65
2021/04/18 00:32:45;;;;;;;20.30;13.98;;;128.90;2252.80;;;;;;5075708;28;20496;-66
2021/04/18 00:35:13;;;;;;;20.83;13.85;;;128.90;2252.80;;;;;;5081652;28;20036;-71
2021/04/18 00:37:40;;;;;;;21.58;14.02;;;128.90;2252.80;;;;;;5091499;28;20020;-66
2021/04/18 00:40:12;;;;;;;18.90;13.60;;;128.90;2252.80;;;;;;5090795;28;20025;-65
2021/04/18 00:42:38;;;;;;;16.60;11.85;;;128.80;2252.80;;;;;;5091578;28;20024;-65
2021/04/18 00:45:06;;;;;;;16.50;11.50;;;128.70;2252.80;;;;;;5091055;28;20028;-67
2021/04/18 00:47:33;;;;;;;15.57;11.18;;;128.80;2252.80;;;;;;5090873;28;20472;-66
2021/04/18 00:50:00;;;;;;;16.00;10.75;;;128.90;2252.80;;;;;;5090798;28;20141;-65
2021/04/18 00:52:26;;;;;;;16.27;11.68;;;128.90;2252.80;;;;;;5090978;28;20377;-65
2021/04/18 00:54:52;;;;;;;18.67;12.70;;;128.80;2252.80;;;;;;5090576;28;20031;-67
2021/04/18 00:57:18;;;;;;;15.50;10.85;;;128.70;2252.80;;;;;;5090870;28;20024;-66
2021/04/18 00:59:47;;;;;;;17.55;11.27;;;128.80;2252.80;;;;;;5090706;28;20468;-66
2021/04/18 01:02:13;;;;;;;14.05;10.02;;;128.90;2252.80;;;;;;5080059;28;20024;-66
2021/04/18 01:04:39;;;;;;;13.48;9.82;;;128.90;2252.80;;;;;;5085649;28;20525;-65
2021/04/18 01:07:05;;;;;;;14.32;10.20;;;128.90;2252.80;;;;;;5090683;28;20016;-66
2021/04/18 01:09:31;;;;;;;17.48;12.35;;;128.90;2252.80;;;;;;5090351;28;20028;-65
2021/04/18 01:11:58;;;;;;;16.73;11.60;;;153.60;2252.80;;;;;;5090674;28;20020;-65
2021/04/18 01:14:24;;;;;;;17.42;11.40;;;153.60;2252.80;;;;;;5090807;28;20036;-65
2021/04/18 01:16:50;;;;;;;11.10;8.23;;;153.60;2252.80;;;;;;5090669;28;20110;-67
2021/04/18 01:19:16;;;;;;;10.13;6.63;;;153.60;2252.80;;;;;;5090168;28;20031;-66
2021/04/18 01:21:42;;;;;;;7.18;5.43;;;128.90;2252.80;;;;;;5090425;28;20043;-65
2021/04/18 01:24:08;;;;;;;6.82;4.80;;;128.90;2252.80;;;;;;5090674;28;20103;-65
2021/04/18 01:26:35;;;;;;;7.57;5.30;;;128.80;2252.80;;;;;;5090279;28;20358;-67
2021/04/18 01:29:01;;;;;;;7.55;5.10;;;128.80;2252.80;;;;;;5085046;28;20190;-66
2021/04/18 01:31:27;;;;;;;6.45;4.80;;;128.70;2252.80;;;;;;5085951;28;20024;-67
2021/04/18 01:33:53;;;;;;;6.82;5.18;;;128.70;2252.80;;;;;;5090217;28;20016;-66
2021/04/18 01:36:19;;;;;;;6.85;5.00;;;128.60;2252.80;;;;;;5090547;28;20106;-66
2021/04/18 01:38:45;;;;;;;6.72;4.68;;;128.60;2252.80;;;;;;5090207;28;20376;-66
2021/04/18 01:41:11;;;;;;;6.07;4.57;;;128.60;2252.80;;;;;;5090078;28;20032;-67
2021/04/18 01:43:40;;;;;;;6.03;4.30;;;128.60;2252.80;;;;;;5090364;28;20056;-66
2021/04/18 01:46:06;;;;;;;6.20;4.20;;;128.60;2252.80;;;;;;5090235;28;20504;-67
2021/04/18 01:48:34;;;;;;;5.80;4.30;;;128.50;2252.80;;;;;;5089703;28;20031;-67
2021/04/18 01:51:05;;;;;;;5.55;4.05;;;128.50;2252.80;;;;;;5090057;28;20119;-66
2021/04/18 01:53:31;;;;;;;4.95;3.97;;;128.40;2252.80;;;;;;5089998;28;20439;-69
2021/04/18 01:55:58;;;;;;;5.43;3.83;;;128.40;2252.80;;;;;;5090030;28;20358;-66
2021/04/18 01:58:24;;;;;;;5.57;3.75;;;128.40;2252.80;;;;;;5090339;28;20357;-65
2021/04/18 02:00:50;;;;;;;4.93;3.53;;;128.40;2252.80;;;;;;5089981;28;20472;-65
2021/04/18 02:03:15;;;;;;;5.20;3.42;;;128.30;2252.80;;;;;;5089862;28;20034;-65
2021/04/18 02:05:41;;;;;;;5.40;3.40;;;128.30;2252.80;;;;;;5089888;28;20028;-76
2021/04/18 02:08:07;;;;;;;5.22;3.70;;;128.30;2252.80;;;;;;5090128;28;20081;-66
2021/04/18 02:10:32;;;;;;;5.20;3.50;;;128.30;2252.80;;;;;;5089570;28;20027;-66
2021/04/18 02:12:58;;;;;;;5.00;3.53;;;128.30;2252.80;;;;;;5089969;28;20016;-67
2021/04/18 02:15:24;;;;;;;4.95;3.50;;;128.30;2252.80;;;;;;5090136;28;20072;-66
2021/04/18 02:17:50;;;;;;;4.60;3.17;;;128.30;2252.80;;;;;;5090083;28;20372;-71
2021/04/18 02:20:17;;;;;;;5.63;3.72;;;128.20;2252.80;;;;;;5080687;28;20032;-75
2021/04/18 02:22:43;;;;;;;12.77;6.82;;;128.20;2252.80;;;;;;5089855;28;20043;-65
2021/04/18 02:25:10;;;;;;;15.73;8.35;;;128.20;2252.80;;;;;;5089871;28;20020;-71
2021/04/18 02:27:36;;;;;;;12.38;6.82;;;128.30;2252.80;;;;;;5089718;28;20021;-66
2021/04/18 02:30:03;;;;;;;11.45;6.50;;;128.30;2252.80;;;;;;5082383;28;20024;-71
2021/04/18 02:32:29;;;;;;;14.13;7.15;;;128.30;2252.80;;;;;;5090072;28;20020;-68
2021/04/18 02:34:55;;;;;;;9.50;5.20;;;128.30;2252.80;;;;;;5089669;28;20027;-69
2021/04/18 02:37:21;;;;;;;6.65;4.40;;;128.40;2252.80;;;;;;5089807;28;20077;-71
2021/04/18 02:39:47;;;;;;;13.45;6.85;;;128.40;2252.80;;;;;;5089614;28;20032;-69
2021/04/18 02:42:13;;;;;;;14.30;7.90;;;128.30;2252.80;;;;;;5089655;28;20822;-66
2021/04/18 02:44:38;;;;;;;11.90;6.97;;;128.30;2252.80;;;;;;5089770;28;20034;-71
2021/04/18 02:47:05;;;;;;;9.88;6.07;;;128.30;2252.80;;;;;;5089950;28;20050;-71
2021/04/18 02:49:31;;;;;;;8.25;5.07;;;128.40;2252.80;;;;;;5089227;28;20484;-72
2021/04/18 02:51:57;;;;;;;6.05;4.03;;;128.30;2252.80;;;;;;5089701;28;20479;-76
2021/04/18 02:54:23;;;;;;;9.25;5.75;;;128.30;2252.80;;;;;;5093329;28;20137;-70
2021/04/18 02:56:49;;;;;;;8.88;5.43;;;128.30;2252.80;;;;;;5093186;28;20106;-65
2021/04/18 02:59:15;;;;;;;8.20;5.28;;;128.30;2252.80;;;;;;5093095;28;20193;-76
2021/04/18 03:01:41;;;;;;;11.88;8.68;;;128.30;2252.80;;;;;;5093432;28;20530;-65
2021/04/18 03:04:07;;;;;;;14.40;10.90;;;128.30;2252.80;;;;;;5093083;28;20009;-70
2021/04/18 03:06:34;;;;;;;15.13;12.25;;;128.30;2252.80;;;;;;5093104;28;20492;-66
2021/04/18 03:09:00;;;;;;;14.15;11.63;;;128.30;2252.80;;;;;;5092431;28;20047;-70
2021/04/18 03:11:26;;;;;;;14.30;11.27;;;128.30;2252.80;;;;;;5093080;28;20032;-74
2021/04/18 03:13:52;;;;;;;12.32;9.45;;;128.40;2252.80;;;;;;5092777;28;20040;-67
2021/04/18 03:16:18;;;;;;;12.32;9.40;;;128.40;2252.80;;;;;;5092845;28;20031;-65
2021/04/18 03:18:44;;;;;;;12.93;9.32;;;128.30;2252.80;;;;;;5091343;28;20438;-76
2021/04/18 03:21:10;;;;;;;13.30;9.38;;;128.20;2252.80;;;;;;5092520;28;20024;-70
2021/04/18 03:23:36;;;;;;;13.52;10.55;;;128.30;2252.80;;;;;;5093136;28;20024;-69
2021/04/18 03:26:02;;;;;;;13.73;10.40;;;128.20;2252.80;;;;;;5092666;28;20031;-65
2021/04/18 03:28:28;;;;;;;12.23;9.32;;;128.20;2252.80;;;;;;5091694;28;20030;-66
2021/04/18 03:30:54;;;;;;;13.30;9.25;;;128.20;2252.80;;;;;;5085971;28;20114;-74
2021/04/18 03:33:20;;;;;;;10.60;8.45;;;128.30;2252.80;;;;;;5092480;28;20032;-78
2021/04/18 03:35:46;;;;;;;10.50;8.23;;;128.30;2252.80;;;;;;5079731;28;20504;-66
2021/04/18 03:38:12;;;;;;;11.00;8.38;;;128.30;2252.80;;;;;;5089665;28;20028;-75
2021/04/18 03:40:39;;;;;;;9.55;7.40;;;128.20;2252.80;;;;;;5092312;28;20063;-67
2021/04/18 03:43:05;;;;;;;8.68;6.07;;;128.30;2252.80;;;;;;5092460;28;20107;-68
2021/04/18 03:45:31;;;;;;;7.93;5.90;;;128.30;2252.80;;;;;;5092506;28;20036;-66
2021/04/18 03:47:57;;;;;;;8.50;6.70;;;128.30;2252.80;;;;;;5092299;28;20056;-65
2021/04/18 03:50:22;;;;;;;11.63;8.27;;;128.30;2252.80;;;;;;5091686;28;20071;-66
2021/04/18 03:52:49;;;;;;;12.15;8.93;;;128.40;2252.80;;;;;;5092257;28;20028;-66
2021/04/18 03:55:15;;;;;;;10.68;7.75;;;128.30;2252.80;;;;;;5091686;28;20118;-74
2021/04/18 03:57:41;;;;;;;13.18;9.52;;;128.30;2252.80;;;;;;5092305;28;20549;-67
2021/04/18 04:00:08;;;;;;;14.32;9.98;;;128.30;2252.80;;;;;;5091464;28;20040;-66
2021/04/18 04:02:34;;;;;;;12.00;8.13;;;128.30;2252.80;;;;;;5092221;28;20107;-65
2021/04/18 04:05:00;;;;;;;10.55;8.07;;;128.30;2252.80;;;;;;5090482;28;20478;-66
2021/04/18 04:07:26;;;;;;;9.27;7.40;;;128.30;2252.80;;;;;;5092038;28;20115;-74
2021/04/18 04:09:51;;;;;;;9.82;7.45;;;128.20;2252.80;;;;;;5091338;28;20485;-66
2021/04/18 04:12:17;;;;;;;11.02;7.82;;;128.30;2252.80;;;;;;5091675;28;20024;-69
2021/04/18 04:14:43;;;;;;;8.27;6.40;;;128.30;2252.80;;;;;;5091839;28;20135;-75
2021/04/18 04:17:09;;;;;;;7.88;6.13;;;128.30;2252.80;;;;;;5091730;28;20049;-66
2021/04/18 04:19:35;;;;;;;7.47;5.70;;;128.20;2252.80;;;;;;5091466;28;20020;-65
2021/04/18 04:22:01;;;;;;;11.00;8.07;;;128.20;2252.80;;;;;;5092100;28;20227;-66
2021/04/18 04:24:27;;;;;;;9.20;6.45;;;128.10;2252.80;;;;;;5091771;28;20024;-66
2021/04/18 04:26:53;;;;;;;11.60;8.70;;;128.00;2252.80;;;;;;5092021;28;20031;-65
2021/04/18 04:29:19;;;;;;;9.68;7.57;;;103.30;2227.20;;;;;;5083359;28;20024;-65
2021/04/18 04:31:45;;;;;;;9.98;7.45;;;103.30;2227.20;;;;;;5091666;28;20030;-66
2021/04/18 04:34:10;;;;;;;9.98;7.43;;;103.30;2227.20;;;;;;5091218;28;20031;-66
2021/04/18 04:36:36;;;;;;;10.27;7.50;;;103.30;2227.20;;;;;;5091043;28;20020;-68
2021/04/18 04:39:03;;;;;;;11.63;8.20;;;103.30;2227.20;;;;;;5090695;28;20043;-65
2021/04/18 04:41:29;;;;;;;13.07;9.55;;;103.30;2227.20;;;;;;5091629;28;20102;-74
2021/04/18 04:43:55;;;;;;;36.40;16.08;;;103.30;2227.20;;;;;;5091083;28;20445;-65
2021/04/18 04:46:21;;;;;;;325.85;93.03;;;103.30;2227.20;;;;;;5091057;28;20024;-65
2021/04/18 04:48:46;;;;;;;212.20;59.78;;;103.30;2227.20;;;;;;5090928;28;20013;-67
2021/04/18 04:51:12;;;;;;;30.65;15.10;;;103.20;2227.20;;;;;;5090736;28;20048;-65
2021/04/18 04:53:38;;;;;;;20.10;11.63;;;103.10;2227.20;;;;;;5091024;28;20503;-66
2021/04/18 04:56:04;;;;;;;18.50;10.98;;;103.00;2227.20;;;;;;5091098;28;20433;-65
2021/04/18 04:58:30;;;;;;;14.68;9.27;;;103.00;2227.20;;;;;;5090663;28;20059;-69
2021/04/18 05:00:56;;;;;;;14.80;9.35;;;102.90;2227.20;;;;;;5090655;28;20056;-66
2021/04/18 05:03:27;;;;;;;13.10;8.90;;;102.70;2227.20;;;;;;5090883;28;20036;-66
2021/04/18 05:05:53;;;;;;;14.75;10.02;;;102.70;2227.20;;;;;;5090624;28;20024;-65
2021/04/18 05:08:19;;;;;;;17.40;11.90;;;102.80;2227.20;;;;;;5089575;28;20050;-74
2021/04/18 05:10:45;;;;;;;17.10;11.13;;;102.70;2227.20;;;;;;5090053;28;20016;-66
2021/04/18 05:13:11;;;;;;;17.30;11.40;;;102.80;2227.20;;;;;;5091111;28;20418;-70
2021/04/18 05:15:37;;;;;;;17.40;11.65;;;102.70;2227.20;;;;;;5090564;28;20024;-65
2021/04/18 05:18:04;;;;;;;16.05;11.07;;;102.70;2227.20;;;;;;5090528;28;20031;-68
2021/04/18 05:20:30;;;;;;;17.02;10.77;;;102.50;2227.20;;;;;;5090135;28;20027;-65
2021/04/18 05:22:56;;;;;;;17.55;10.55;;;102.50;2227.20;;;;;;5090431;28;20087;-66
2021/04/18 05:25:22;;;;;;;49.30;26.02;;;102.50;2227.20;;;;;;5090635;28;20103;-65
2021/04/18 05:27:47;;;;;;;52.67;28.40;;;102.50;2227.20;;;;;;5090440;28;20403;-66
2021/04/18 05:30:14;;;;;;;64.05;34.63;;;102.60;2227.20;;;;;;5082301;28;20016;-74
2021/04/18 05:32:40;;;;;;;27.73;17.77;;;102.60;2227.20;;;;;;5089362;28;20388;-66
2021/04/18 05:35:07;;;;;;;24.50;16.08;;;102.60;2227.20;;;;;;5090642;28;20031;-65
2021/04/18 05:37:33;;;;;;;20.67;15.35;;;102.60;2227.20;;;;;;5090449;28;20028;-65
2021/04/18 05:39:59;;;;;;;18.88;12.77;;;102.60;2227.20;;;;;;5089526;28;20365;-66
2021/04/18 05:42:25;;;;;;;22.52;13.77;;;102.50;2227.20;;;;;;5090574;28;20028;-74
2021/04/18 05:44:51;;;;;;;28.42;16.05;;;102.50;2227.20;;;;;;5090132;28;20063;-67
2021/04/18 05:47:16;;;;;;;19.67;12.43;;;102.50;2227.20;;;;;;5090412;28;20024;-66
2021/04/18 05:49:42;;;;;;;32.50;19.15;;;102.50;2227.20;;;;;;5089663;28;20036;-70
2021/04/18 05:52:08;;;;;;;21.02;12.82;;;102.40;2227.20;;;;;;5089343;28;20085;-67
2021/04/18 05:54:34;;;;;;;25.15;17.40;;;102.40;2227.20;;;;;;5090182;28;20107;-65
2021/04/18 05:56:59;;;;;;;28.13;18.83;;;102.40;2227.20;;;;;;5090413;28;20020;-65
2021/04/18 05:59:25;;;;;;;28.55;17.65;;;102.40;2227.20;;;;;;5089644;28;20040;-65
2021/04/18 06:01:51;;;;;;;19.35;12.65;;;102.40;2227.20;;;;;;5090053;28;20111;-72
2021/04/18 06:04:17;;;;;;;17.10;11.35;;;102.60;2227.20;;;;;;5090197;28;20161;-71
2021/04/18 06:06:43;;;;;;;26.45;16.58;;;102.60;2227.20;;;;;;5090122;28;20016;-66
2021/04/18 06:09:08;;;;;;;30.15;20.60;;;102.60;2227.20;;;;;;5090032;28;20020;-66
2021/04/18 06:11:34;;;;;;;22.85;16.02;;;102.70;2227.20;;;;;;5089730;28;20392;-66
2021/04/18 06:14:00;;;;;;;22.42;14.88;;;102.70;2227.20;;;;;;5090128;28;20028;-66
2021/04/18 06:16:26;;;;;;;18.85;12.70;;;102.80;2227.20;;;;;;5090119;28;20113;-66
2021/04/18 06:18:51;;;;;;;24.77;16.10;;;102.80;2227.20;;;;;;5089683;28;20070;-65
2021/04/18 06:21:18;;;;;;;20.80;13.77;;;102.70;2227.20;;;;;;5089547;28;20058;-66
2021/04/18 06:23:44;;;;;;;19.02;14.15;;;102.60;2227.20;;;;;;5090124;28;20115;-70
2021/04/18 06:26:10;;;;;;;21.17;14.40;;;102.60;2227.20;;;;;;5089721;28;20173;-69
2021/04/18 06:28:36;;;;;;;19.38;12.95;;;102.70;2227.20;;;;;;5090794;28;20025;-65
2021/04/18 06:31:02;;;;;;;17.67;13.52;;;102.70;2227.20;;;;;;5088012;28;20032;-66
2021/04/18 06:33:28;;;;;;;16.23;11.50;;;102.70;2227.20;;;;;;5093928;28;20044;-65
2021/04/18 06:35:54;;;;;;;15.52;11.27;;;102.70;2227.20;;;;;;5093470;28;20105;-66
2021/04/18 06:38:20;;;;;;;33.72;20.42;;;102.70;2227.20;;;;;;5093599;28;20024;-68
2021/04/18 06:40:46;;;;;;;43.25;23.65;;;102.70;2227.20;;;;;;5093136;28;20024;-65
2021/04/18 06:43:12;;;;;;;18.20;11.65;;;102.80;2227.20;;;;;;5093247;28;20032;-65
2021/04/18 06:45:39;;;;;;;19.98;12.70;;;102.90;2227.20;;;;;;5093686;28;20060;-66
2021/04/18 06:48:06;;;;;;;20.60;13.75;;;102.80;2227.20;;;;;;5093472;28;20537;-67
2021/04/18 06:50:32;;;;;;;17.50;12.05;;;102.80;2227.20;;;;;;5092571;28;20428;-66
2021/04/18 06:52:58;;;;;;;21.83;14.73;;;102.80;2227.20;;;;;;5093583;28;20028;-66
2021/04/18 06:55:26;;;;;;;19.50;12.98;;;102.90;2227.20;;;;;;5093137;28;20541;-67
2021/04/18 06:57:52;;;;;;;15.90;12.10;;;102.90;2227.20;;;;;;5093399;28;20040;-68
2021/04/18 07:00:19;;;;;;;22.92;17.17;;;102.90;2227.20;;;;;;5092753;28;20111;-66
2021/04/18 07:02:45;;;;;;;23.58;13.30;;;103.00;2227.20;;;;;;5093347;28;20081;-71
2021/04/18 07:05:15;;;;;;;15.07;11.13;;;103.10;2227.20;;;;;;5092781;28;20028;-68
2021/04/18 07:07:46;;;;;;;15.05;10.27;;;103.10;2227.20;;;;;;5093675;28;20028;-70
2021/04/18 07:10:30;;;;;;;23.23;14.02;;;103.10;2227.20;;;;;;5092447;28;20040;-68
2021/04/18 07:13:10;;;;;;;28.35;16.73;;;103.20;2227.20;;;;;;5091639;28;20024;-71
2021/04/18 07:15:39;;;;;;;63.85;30.52;;;103.20;2227.20;;;;;;5093611;28;20031;-66
2021/04/18 07:18:06;;;;;;;26.42;18.17;;;103.30;2227.20;;;;;;5093434;28;20131;-67
2021/04/18 07:20:32;;;;;;;19.63;13.45;;;128.00;2252.80;;;;;;5091992;28;20499;-68
2021/04/18 07:23:30;;;;;;;18.52;12.98;;;128.00;2252.80;;;;;;5092805;28;20063;-66
2021/04/18 07:26:15;;;;;;;34.33;19.55;;;128.10;2252.80;;;;;;5093138;28;20388;-70
2021/04/18 07:28:41;;;;;;;41.63;25.05;;;128.20;2252.80;;;;;;5090206;28;20027;-70
2021/04/18 07:31:07;;;;;;;29.48;18.95;;;128.30;2252.80;;;;;;5087668;28;20021;-67
2021/04/18 07:33:33;;;;;;;42.88;24.92;;;128.40;2252.80;;;;;;5092723;28;20435;-66
2021/04/18 07:35:58;;;;;;;30.25;17.13;;;128.40;2252.80;;;;;;5084817;28;20354;-71
2021/04/18 07:38:28;;;;;;;36.80;19.63;;;128.40;2252.80;;;;;;5091743;28;20536;-67
2021/04/18 07:41:15;;;;;;;18.65;13.80;;;128.40;2252.80;;;;;;5092208;28;20449;-66
2021/04/18 07:43:43;;;;;;;41.13;21.85;;;128.40;2252.80;;;;;;5092315;28;20507;-69
2021/04/18 07:46:09;;;;;;;26.58;17.73;;;128.50;2252.80;;;;;;5092564;28;20020;-67
2021/04/18 07:48:37;;;;;;;30.92;21.42;;;128.70;2252.80;;;;;;5091840;28;20120;-66
2021/04/18 07:51:03;;;;;;;23.52;17.20;;;128.80;2252.80;;;;;;5091941;28;20044;-66
2021/04/18 07:53:29;;;;;;;17.77;12.13;;;128.90;2252.80;;;;;;5092133;28;20149;-65
2021/04/18 07:55:55;;;;;;;44.53;30.25;;;128.70;2252.80;;;;;;5092110;28;20028;-65
2021/04/18 07:58:21;;;;;;;34.17;23.88;;;128.60;2252.80;;;;;;5092158;28;20020;-66
2021/04/18 08:00:47;;;;;;;24.75;18.63;;;128.80;2252.80;;;;;;5091650;28;20020;-65
2021/04/18 08:03:17;;;;;;;32.35;22.13;;;153.70;2252.80;;;;;;5091868;28;20054;-70
2021/04/18 08:05:45;;;;;;;24.98;17.60;;;153.60;2252.80;;;;;;5064076;28;20051;-65
2021/04/18 08:08:15;;;;;;;34.85;19.83;;;153.60;2252.80;;;;;;5091941;28;20024;-65
2021/04/18 08:10:48;;;;;;;24.25;15.55;;;153.60;2252.80;;;;;;5091551;28;20016;-65
2021/04/18 08:13:26;;;;;;;14.20;9.63;;;153.80;2252.80;;;;;;5092098;28;20024;-65
2021/04/18 08:16:01;;;;;;;12.77;10.05;;;153.90;2252.80;;;;;;5091467;28;20111;-65
2021/04/18 08:18:32;;;;;;;15.32;12.07;;;154.00;2252.80;;;;;;5088296;28;20370;-66
2021/04/18 08:20:59;;;;;;;10.05;7.65;;;154.30;2252.80;;;;;;5087104;28;20400;-65
2021/04/18 08:23:36;;;;;;;10.43;6.63;;;154.30;2252.80;;;;;;5092039;28;20028;-65
2021/04/18 08:26:12;;;;;;;13.07;8.93;;;154.10;2252.80;;;;;;5091663;28;20050;-69
2021/04/18 08:29:06;;;;;;;16.20;10.65;;;153.90;2252.80;;;;;;5089627;28;20024;-65
2021/04/18 08:32:01;;;;;;;29.70;19.48;;;153.90;2252.80;;;;;;5069886;28;20031;-67
2021/04/18 08:34:30;;;;;;;24.33;15.57;;;153.80;2252.80;;;;;;5083252;28;20052;-66
2021/04/18 08:36:58;;;;;;;56.40;32.75;;;153.70;2252.80;;;;;;5083096;28;20013;-66
2021/04/18 08:39:33;;;;;;;18.40;12.07;;;153.80;2252.80;;;;;;5076426;28;20020;-70
2021/04/18 08:42:05;;;;;;;19.90;16.80;;;153.90;2252.80;;;;;;5066682;28;20103;-65
2021/04/18 08:44:43;;;;;;;11.75;8.75;;;154.10;2252.80;;;;;;5071981;28;20481;-66
2021/04/18 08:47:14;;;;;;;13.13;9.00;;;154.20;2252.80;;;;;;5084605;28;20055;-65
2021/04/18 08:49:43;;;;;;;21.23;14.80;;;154.00;2252.80;;;;;;5077658;28;20033;-66
2021/04/18 08:52:22;;;;;;;25.55;16.00;;;154.00;2252.80;;;;;;5069444;28;20020;-65
2021/04/18 08:54:50;;;;;;;18.88;12.68;;;153.90;2252.80;;;;;;5079376;28;20024;-65
2021/04/18 08:57:22;;;;;;;20.75;14.18;;;154.10;2252.80;;;;;;5085892;28;20020;-69
2021/04/18 08:59:52;;;;;;;35.47;22.63;;;153.90;2252.80;;;;;;5071978;28;20020;-65
2021/04/18 09:02:18;;;;;;;100.30;43.33;;;154.10;2252.80;;;;;;5085632;28;20035;-66
2021/04/18 09:04:56;;;;;;;95.88;46.85;;;154.40;2252.80;;;;;;5080277;28;20044;-65
2021/04/18 09:07:28;;;;;;;30.05;20.30;;;154.50;2252.80;;;;;;5085511;28;20032;-66
2021/04/18 09:09:58;;;;;;;39.85;24.58;;;179.20;2252.80;;;;;;5074159;28;20029;-66
2021/04/18 09:12:24;;;;;;;25.83;18.40;;;179.30;2252.80;;;;;;5088696;28;20028;-65
2021/04/18 09:14:51;;;;;;;22.95;15.63;;;179.30;2252.80;;;;;;5090385;28;20032;-66
2021/04/18 09:17:24;;;;;;;24.27;17.75;;;154.50;2252.80;;;;;;5090447;28;20043;-66
2021/04/18 09:19:58;;;;;;;27.08;18.77;;;154.50;2252.80;;;;;;5062957;28;20117;-66
2021/04/18 09:22:26;;;;;;;35.08;25.42;;;154.40;2252.80;;;;;;5090624;28;20028;-65
2021/04/18 09:24:54;;;;;;;38.17;26.92;;;179.30;2252.80;;;;;;5086416;28;20473;-65
2021/04/18 09:27:33;;;;;;;29.63;20.80;;;179.50;2252.80;;;;;;5070744;28;20028;-65
2021/04/18 09:30:18;;;;;;;31.85;21.00;;;179.20;2252.80;;;;;;5055369;28;20029;-65
2021/04/18 09:32:47;;;;;;;26.17;18.23;;;154.50;2252.80;;;;;;5049909;28;20025;-64
2021/04/18 09:35:15;;;;;;;23.92;16.35;;;179.20;2252.80;;;;;;5065459;28;20024;-65
2021/04/18 09:37:49;;;;;;;24.73;17.25;;;154.50;2252.80;;;;;;5089996;28;20055;-65
2021/04/18 09:40:16;;;;;;;25.23;17.60;;;179.20;2252.80;;;;;;5090042;28;20032;-64
2021/04/18 09:42:48;;;;;;;28.58;19.15;;;154.50;2252.80;;;;;;5086116;28;20065;-66
2021/04/18 09:45:16;;;;;;;30.60;22.77;;;154.40;2252.80;;;;;;5065697;28;20021;-65
2021/04/18 09:47:48;;;;;;;27.13;17.88;;;179.30;2252.80;;;;;;5054563;28;20326;-64
2021/04/18 09:50:33;;;;;;;28.42;19.50;;;179.30;2252.80;;;;;;5061816;28;20439;-65
2021/04/18 09:53:22;;;;;;;29.65;20.73;;;179.40;2252.80;;;;;;5070748;28;20534;-65
2021/04/18 09:56:06;;;;;;;39.40;25.67;;;179.40;2252.80;;;;;;5063646;28;20039;-64
2021/04/18 09:58:40;;;;;;;70.85;42.67;;;179.60;2252.80;;;;;;5051338;28;20059;-69
2021/04/18 10:01:26;;;;;;;31.88;22.92;;;179.80;2252.80;;;;;;5049573;28;20117;-65
2021/04/18 10:03:52;;;;;;;28.67;19.35;;;179.50;2252.80;;;;;;5076573;28;20542;-68
2021/04/18 10:06:19;;;;;;;25.13;18.80;;;179.60;2252.80;;;;;;5075993;28;20032;-66
2021/04/18 10:08:55;;;;;;;26.55;20.48;;;179.90;2252.80;;;;;;5088314;28;20099;-70
2021/04/18 10:11:21;;;;;;;25.58;18.85;;;180.10;2252.80;;;;;;5091518;28;20016;-69
2021/04/18 10:13:55;;;;;;;25.95;19.02;;;204.80;2252.80;;;;;;5077101;28;20090;-65
2021/04/18 10:16:34;;;;;;;25.77;17.15;;;205.00;2252.80;;;;;;5058794;28;20028;-65
2021/04/18 10:19:14;;;;;;;27.48;20.67;;;205.10;2252.80;;;;;;5057697;28;20033;-65
2021/04/18 10:21:43;;;;;;;26.90;17.92;;;205.20;2252.80;;;;;;5069278;28;20112;-66
2021/04/18 10:24:31;;;;;;;30.45;21.38;;;205.40;2252.80;;;;;;5071440;28;20035;-68
2021/04/18 10:26:56;;;;;;;23.63;16.75;;;205.40;2252.80;;;;;;5075805;28;20038;-64
2021/04/18 10:29:22;;;;;;;18.42;13.95;;;205.30;2252.80;;;;;;5081101;28;20024;-65
2021/04/18 10:31:48;;;;;;;24.48;18.05;;;205.10;2252.80;;;;;;5060343;28;20024;-65
2021/04/18 10:34:14;;;;;;;23.17;18.55;;;205.10;2252.80;;;;;;5058449;28;20029;-65
2021/04/18 10:36:39;;;;;;;28.95;20.30;;;205.30;2252.80;;;;;;5086909;28;20141;-66
2021/04/18 10:39:05;;;;;;;23.10;17.13;;;205.20;2252.80;;;;;;5080143;28;20423;-65
2021/04/18 10:41:31;;;;;;;20.48;15.23;;;205.40;2252.80;;;;;;5088740;28;20032;-65
2021/04/18 10:43:57;;;;;;;28.65;19.85;;;205.50;2252.80;;;;;;5091489;28;20027;-65
2021/04/18 10:46:22;;;;;;;21.13;16.52;;;205.40;2252.80;;;;;;5087108;28;20155;-66
2021/04/18 10:48:48;;;;;;;26.67;18.50;;;205.60;2252.80;;;;;;5054135;28;20520;-68
2021/04/18 10:51:14;;;;;;;24.70;18.45;;;205.50;2252.80;;;;;;5054741;28;20519;-65
2021/04/18 10:53:40;;;;;;;21.60;16.10;;;205.60;2252.80;;;;;;5079622;28;20107;-70
2021/04/18 10:56:06;;;;;;;23.10;16.70;;;205.60;2252.80;;;;;;5084552;28;20024;-66
2021/04/18 10:58:32;;;;;;;25.65;18.58;;;205.70;2252.80;;;;;;5079530;28;20074;-66
2021/04/18 11:00:58;;;;;;;27.25;19.23;;;230.50;2252.80;;;;;;5077508;28;20074;-70
2021/04/18 11:03:24;;;;;;;22.45;16.13;;;230.80;2252.80;;;;;;5060308;28;20076;-72
2021/04/18 11:05:52;;;;;;;24.48;17.02;;;230.90;2252.80;;;;;;5064186;28;20060;-71
2021/04/18 11:08:18;;;;;;;24.75;17.23;;;230.90;2252.80;;;;;;5076874;28;20021;-70
2021/04/18 11:10:44;;;;;;;26.02;20.00;;;231.00;2252.80;;;;;;5077741;28;20381;-65
2021/04/18 11:13:10;;;;;;;31.05;22.33;;;231.10;2252.80;;;;;;5092239;28;20029;-65
2021/04/18 11:15:37;;;;;;;42.75;28.88;;;230.70;2252.80;;;;;;5083872;28;20033;-64
2021/04/18 11:18:02;;;;;;;49.88;30.80;;;230.70;2252.80;;;;;;5087726;28;20423;-64
2021/04/18 11:20:28;;;;;;;39.88;27.40;;;230.70;2252.80;;;;;;5085168;28;20074;-64
2021/04/18 11:22:54;;;;;;;32.28;23.65;;;230.60;2252.80;;;;;;5076255;28;20051;-64
2021/04/18 11:25:20;;;;;;;45.35;30.55;;;230.60;2252.80;;;;;;5056902;28;20104;-65
2021/04/18 11:27:47;;;;;;;44.17;29.65;;;230.90;2252.80;;;;;;5083226;28;20050;-65
2021/04/18 11:30:15;;;;;;;53.60;33.80;;;230.80;2252.80;;;;;;5084371;28;20020;-65
2021/04/18 11:32:41;;;;;;;44.13;28.58;;;230.70;2252.80;;;;;;5091028;28;20484;-63
2021/04/18 11:35:10;;;;;;;26.88;18.45;;;230.80;2252.80;;;;;;5091129;28;20074;-64
2021/04/18 11:37:36;;;;;;;32.40;23.02;;;230.70;2252.80;;;;;;5085401;28;20099;-65
2021/04/18 11:40:05;;;;;;;30.27;23.38;;;230.90;2252.80;;;;;;5090670;28;20093;-64
2021/04/18 11:42:31;;;;;;;37.22;24.30;;;231.10;2252.80;;;;;;5092219;28;20449;-65
2021/04/18 11:45:00;;;;;;;43.85;30.58;;;231.00;2252.80;;;;;;5090595;28;20034;-64
2021/04/18 11:47:26;;;;;;;48.28;32.33;;;230.70;2252.80;;;;;;5091804;28;20063;-65
2021/04/18 11:49:52;;;;;;;54.03;34.42;;;230.70;2252.80;;;;;;5075693;28;20076;-64
2021/04/18 11:52:17;;;;;;;52.83;32.85;;;230.80;2252.80;;;;;;5055690;28;20064;-65
2021/04/18 11:54:43;;;;;;;46.58;31.58;;;231.00;2252.80;;;;;;5058852;28;20013;-68
2021/04/18 11:57:09;;;;;;;53.22;35.20;;;231.10;2252.80;;;;;;5060149;28;20481;-66
2021/04/18 11:59:37;;;;;;;65.32;41.00;;;231.30;2252.80;;;;;;5054256;28;20070;-67
2021/04/18 12:02:03;;;;;;;83.32;49.05;;;256.00;2252.80;;;;;;5057722;28;20027;-66
2021/04/18 12:04:29;;;;;;;53.17;34.85;;;256.00;2252.80;;;;;;5053596;28;20074;-70
2021/04/18 12:06:54;;;;;;;45.80;31.98;;;231.30;2252.80;;;;;;5080047;28;20024;-67